EKVJ

Stauning Vestjylland

Airport
ICAO code
EKVJ
Summary
ICAO Region
EUR
ICAO Territory
Location

Skjern,

Elevation
17 ft
Coordinates
55° 59' 24" N , 8° 21' 14" E
KCC
Metar
Observation
EKVJ 060820Z 00000KT 0600 BCFG BKN002 02/02 Q1040
Station
Stauning Lufthavn
Date/Time
2023-02-06 08:20:00
Wind direction
Wind speed
00 kts
Lowest cloud amount
broken clouds
Temperature
2°C
Dew point
2°C
Humidity
100%
QNH
1040 hPa
Weather condition
n/a

Description

Stauning Airport is located 12 km from Skjern, Denmark.

Climatology

Temperate Marine climate/Oceanic climate (Köppen climate classification Cfb). Moderately cool summer and comparatively warm winter with a temperature range of only 14°C. Prevailing south-westerly winds from the Atlantic Ocean.

Runways

Designator Length Width Surface Rops
9/27 1450 30 ASP No/No

Airport map

Aerial View

SKYbrary Partners:

Safety knowledge contributed by: